createdAt,value
2023-04-26T00:00:10.329Z,100.00
2023-04-26T00:02:38.857Z,100.00
2023-04-26T00:05:09.694Z,100.00
2023-04-26T00:07:39.763Z,100.00
2023-04-26T00:10:09.731Z,100.00
2023-04-26T00:12:38.179Z,100.00
2023-04-26T00:15:07.692Z,100.00
2023-04-26T00:17:36.204Z,100.00
2023-04-26T00:20:09.281Z,100.00
2023-04-26T00:22:37.548Z,100.00
2023-04-26T00:25:08.183Z,100.00
2023-04-26T00:27:36.606Z,100.00
2023-04-26T00:30:05.303Z,100.00
2023-04-26T00:32:35.558Z,100.00
2023-04-26T00:35:05.443Z,100.00
2023-04-26T00:37:33.437Z,100.00
2023-04-26T00:40:01.570Z,100.00
2023-04-26T00:42:31.091Z,100.00
2023-04-26T00:44:59.208Z,100.00
2023-04-26T00:47:28.077Z,100.00
2023-04-26T00:49:56.421Z,100.00
2023-04-26T00:52:26.276Z,100.00
2023-04-26T00:54:56.410Z,100.00
2023-04-26T00:57:25.478Z,100.00
2023-04-26T00:59:55.039Z,100.00
2023-04-26T01:02:24.315Z,100.00
2023-04-26T01:04:52.418Z,100.00
2023-04-26T01:07:20.819Z,100.00
2023-04-26T01:09:50.684Z,100.00
2023-04-26T01:12:21.046Z,100.00
2023-04-26T01:14:49.209Z,100.00
2023-04-26T01:17:20.191Z,100.00
2023-04-26T01:19:49.275Z,100.00
2023-04-26T01:22:18.009Z,100.00
2023-04-26T01:24:51.333Z,100.00
2023-04-26T01:27:19.689Z,100.00
2023-04-26T01:29:47.847Z,100.00
2023-04-26T01:32:17.527Z,100.00
2023-04-26T01:34:45.758Z,100.00
2023-04-26T01:37:14.037Z,100.00
2023-04-26T01:39:42.013Z,100.00
2023-04-26T01:42:11.904Z,100.00
2023-04-26T01:44:41.339Z,100.00
2023-04-26T01:47:09.651Z,100.00
2023-04-26T01:49:37.716Z,100.00
2023-04-26T01:52:06.010Z,100.00
2023-04-26T01:54:34.572Z,100.00
2023-04-26T01:57:02.823Z,100.00
2023-04-26T01:59:32.393Z,100.00
2023-04-26T02:02:00.722Z,100.00
2023-04-26T02:04:29.384Z,100.00
2023-04-26T02:06:57.943Z,100.00
2023-04-26T02:09:26.170Z,100.00
2023-04-26T02:11:54.274Z,100.00
2023-04-26T02:14:22.416Z,100.00
2023-04-26T02:16:53.089Z,100.00
2023-04-26T02:19:21.278Z,100.00
2023-04-26T02:21:58.267Z,100.00
2023-04-26T02:24:27.265Z,100.00
2023-04-26T02:26:56.251Z,100.00
2023-04-26T02:29:42.289Z,100.00
2023-04-26T02:32:14.584Z,100.00
2023-04-26T02:34:44.875Z,100.00
2023-04-26T02:37:12.988Z,100.00
2023-04-26T02:39:41.246Z,100.00
2023-04-26T02:42:11.241Z,100.00
2023-04-26T02:44:40.230Z,100.00
2023-04-26T02:47:08.494Z,100.00
2023-04-26T02:49:38.288Z,100.00
2023-04-26T02:52:06.745Z,100.00
2023-04-26T02:54:34.946Z,100.00
2023-04-26T02:57:03.300Z,100.00
2023-04-26T02:59:31.670Z,100.00
2023-04-26T03:02:00.232Z,100.00
2023-04-26T03:04:30.778Z,100.00
2023-04-26T03:07:00.306Z,100.00
2023-04-26T03:09:28.356Z,100.00
2023-04-26T03:11:56.634Z,100.00
2023-04-26T03:14:25.129Z,100.00
2023-04-26T03:16:53.718Z,100.00
2023-04-26T03:19:22.037Z,100.00
2023-04-26T03:21:50.076Z,100.00
2023-04-26T03:24:19.662Z,100.00
2023-04-26T03:26:47.693Z,100.00
2023-04-26T03:29:16.033Z,100.00
2023-04-26T03:31:44.610Z,100.00
2023-04-26T03:34:12.931Z,100.00
2023-04-26T03:36:41.159Z,100.00
2023-04-26T03:39:09.868Z,100.00
2023-04-26T03:41:40.633Z,100.00
2023-04-26T03:44:08.820Z,100.00
2023-04-26T03:46:36.914Z,100.00
2023-04-26T03:49:05.064Z,100.00
2023-04-26T03:51:33.218Z,100.00
2023-04-26T03:54:01.532Z,100.00
2023-04-26T03:56:29.556Z,100.00
2023-04-26T03:58:59.289Z,100.00
2023-04-26T04:01:27.934Z,100.00
2023-04-26T04:03:56.774Z,100.00
2023-04-26T04:06:25.475Z,100.00
2023-04-26T04:08:55.419Z,100.00
2023-04-26T04:11:23.868Z,100.00
2023-04-26T04:13:51.876Z,100.00
2023-04-26T04:16:21.886Z,100.00
2023-04-26T04:18:50.552Z,100.00
2023-04-26T04:21:18.933Z,100.00
2023-04-26T04:23:47.171Z,100.00
2023-04-26T04:26:15.374Z,100.00
2023-04-26T04:28:45.138Z,100.00
2023-04-26T04:31:13.367Z,100.00
2023-04-26T04:33:42.910Z,100.00
2023-04-26T04:36:11.517Z,100.00
2023-04-26T04:38:39.891Z,100.00
2023-04-26T04:41:08.742Z,100.00
2023-04-26T04:43:37.415Z,100.00
2023-04-26T04:46:05.699Z,100.00
2023-04-26T04:48:33.876Z,100.00
2023-04-26T04:51:03.889Z,100.00
2023-04-26T04:53:32.081Z,100.00
2023-04-26T04:56:00.254Z,100.00
2023-04-26T04:58:28.495Z,100.00
2023-04-26T05:00:57.224Z,100.00
2023-04-26T05:03:25.559Z,100.00
2023-04-26T05:05:53.858Z,100.00
2023-04-26T05:08:23.649Z,100.00
2023-04-26T05:10:51.956Z,100.00
2023-04-26T05:13:19.959Z,100.00
2023-04-26T05:15:47.983Z,100.00
2023-04-26T05:18:16.187Z,100.00
2023-04-26T05:20:44.319Z,100.00
2023-04-26T05:23:12.331Z,100.00
2023-04-26T05:25:41.799Z,100.00
2023-04-26T05:28:12.906Z,100.00
2023-04-26T05:30:41.083Z,100.00
2023-04-26T05:33:09.168Z,100.00
2023-04-26T05:35:37.840Z,100.00
2023-04-26T05:38:06.230Z,100.00
2023-04-26T05:40:35.764Z,100.00
2023-04-26T05:43:05.286Z,100.00
2023-04-26T05:45:33.849Z,100.00
2023-04-26T05:48:02.261Z,100.00
2023-04-26T05:50:30.438Z,100.00
2023-04-26T05:52:59.000Z,100.00
2023-04-26T05:55:27.445Z,100.00
2023-04-26T05:57:55.824Z,100.00
2023-04-26T06:00:27.514Z,100.00
2023-04-26T06:02:55.837Z,100.00
2023-04-26T06:05:24.550Z,100.00
2023-04-26T06:07:53.226Z,100.00
2023-04-26T06:10:21.657Z,100.00
2023-04-26T06:12:49.880Z,100.00
2023-04-26T06:15:18.438Z,100.00
2023-04-26T06:17:47.996Z,100.00
2023-04-26T06:20:16.451Z,100.00
2023-04-26T06:22:44.751Z,100.00
2023-04-26T06:25:13.107Z,100.00
2023-04-26T06:27:41.180Z,100.00
2023-04-26T06:30:10.677Z,100.00
2023-04-26T06:32:40.693Z,100.00
2023-04-26T06:35:11.064Z,100.00
2023-04-26T06:37:40.082Z,100.00
2023-04-26T06:40:09.646Z,100.00
2023-04-26T06:42:37.845Z,100.00
2023-04-26T06:45:06.797Z,100.00
2023-04-26T06:47:34.929Z,100.00
2023-04-26T06:50:04.582Z,100.00
2023-04-26T06:52:34.430Z,100.00
2023-04-26T06:55:03.862Z,100.00
2023-04-26T06:57:32.247Z,100.00
2023-04-26T07:00:00.362Z,100.00
2023-04-26T07:02:28.681Z,100.00
2023-04-26T07:04:57.839Z,100.00
2023-04-26T07:07:25.933Z,100.00
2023-04-26T07:09:55.595Z,100.00
2023-04-26T07:12:23.605Z,100.00
2023-04-26T07:14:51.841Z,100.00
2023-04-26T07:17:20.014Z,100.00
2023-04-26T07:19:48.078Z,100.00
2023-04-26T07:22:16.179Z,100.00
2023-04-26T07:24:44.178Z,100.00
2023-04-26T07:27:13.640Z,100.00
2023-04-26T07:29:41.746Z,100.00
2023-04-26T07:32:10.142Z,100.00
2023-04-26T07:34:38.608Z,100.00
2023-04-26T07:37:07.310Z,100.00
2023-04-26T07:39:35.375Z,100.00
2023-04-26T07:42:03.574Z,100.00
2023-04-26T07:44:33.206Z,100.00
2023-04-26T07:47:01.479Z,100.00
2023-04-26T07:49:29.788Z,100.00
2023-04-26T07:51:59.096Z,100.00
2023-04-26T07:54:27.203Z,100.00
2023-04-26T07:56:55.813Z,100.00
2023-04-26T07:59:24.524Z,100.00
2023-04-26T08:01:54.032Z,100.00
2023-04-26T08:04:32.720Z,100.00
2023-04-26T08:07:01.707Z,100.00
2023-04-26T08:09:31.000Z,100.00
2023-04-26T08:12:00.517Z,100.00
2023-04-26T08:14:30.158Z,100.00
2023-04-26T08:16:59.656Z,100.00
2023-04-26T08:19:31.111Z,100.00
2023-04-26T08:21:59.247Z,100.00
2023-04-26T08:24:27.241Z,100.00
2023-04-26T08:26:56.170Z,97.58
2023-04-26T08:29:24.728Z,97.92
2023-04-26T08:31:52.799Z,90.87
2023-04-26T08:34:22.575Z,85.37
2023-04-26T08:36:51.185Z,85.70
2023-04-26T08:39:19.506Z,87.37
2023-04-26T08:41:51.973Z,88.34
2023-04-26T08:44:24.964Z,86.83
2023-04-26T08:47:02.192Z,80.88
2023-04-26T08:49:41.279Z,80.76
2023-04-26T08:52:12.255Z,76.55
2023-04-26T08:54:41.421Z,78.89
2023-04-26T08:57:10.099Z,75.46
2023-04-26T08:59:39.327Z,75.75
2023-04-26T09:02:08.748Z,75.90
2023-04-26T09:04:38.803Z,82.54
2023-04-26T09:07:10.025Z,77.64
2023-04-26T09:09:43.756Z,83.41
2023-04-26T09:12:11.883Z,83.05
2023-04-26T09:14:40.503Z,86.68
2023-04-26T09:17:26.514Z,88.13
2023-04-26T09:19:56.866Z,85.54
2023-04-26T09:22:36.236Z,83.66
2023-04-26T09:25:06.063Z,82.64
2023-04-26T09:27:38.922Z,79.13
2023-04-26T09:30:10.659Z,76.10
2023-04-26T09:32:47.775Z,70.30
2023-04-26T09:35:37.278Z,62.35
2023-04-26T09:38:12.339Z,59.98
2023-04-26T09:40:43.246Z,65.18
2023-04-26T09:43:13.402Z,65.47
2023-04-26T09:45:47.658Z,67.25
2023-04-26T09:48:18.090Z,70.51
2023-04-26T09:50:48.334Z,70.54
2023-04-26T09:53:34.919Z,70.44
2023-04-26T09:56:13.742Z,73.22
2023-04-26T09:58:59.026Z,71.24
2023-04-26T10:01:30.870Z,68.07
2023-04-26T10:03:59.976Z,66.43
2023-04-26T10:06:30.539Z,72.65
2023-04-26T10:08:59.117Z,66.61
2023-04-26T10:11:28.682Z,65.39
2023-04-26T10:13:57.176Z,64.34
2023-04-26T10:16:26.175Z,60.38
2023-04-26T10:18:55.289Z,64.17
2023-04-26T10:21:28.640Z,61.53
2023-04-26T10:24:00.513Z,62.78
2023-04-26T10:26:54.081Z,59.48
2023-04-26T10:29:23.241Z,61.40
2023-04-26T10:32:12.290Z,57.48
2023-04-26T10:34:44.761Z,57.57
2023-04-26T10:37:17.003Z,58.61
2023-04-26T10:39:50.247Z,56.83
2023-04-26T10:42:26.623Z,57.52
2023-04-26T10:44:56.777Z,58.79
2023-04-26T10:47:31.997Z,57.66
2023-04-26T10:50:08.592Z,57.07
2023-04-26T10:52:40.120Z,56.56
2023-04-26T10:55:10.881Z,56.31
2023-04-26T10:57:50.049Z,56.02
2023-04-26T11:00:28.453Z,54.94
2023-04-26T11:03:01.842Z,56.85
2023-04-26T11:05:53.200Z,54.98
2023-04-26T11:08:22.612Z,56.15
2023-04-26T11:11:12.549Z,57.99
2023-04-26T11:13:42.228Z,59.29
2023-04-26T11:16:11.971Z,59.37
2023-04-26T11:18:42.223Z,60.62
2023-04-26T11:21:11.329Z,59.79
2023-04-26T11:23:39.861Z,59.30
2023-04-26T11:26:11.073Z,60.47
2023-04-26T11:28:41.336Z,57.93
2023-04-26T11:31:09.845Z,59.71
2023-04-26T11:33:41.108Z,56.42
2023-04-26T11:36:10.040Z,55.51
2023-04-26T11:38:40.014Z,53.39
2023-04-26T11:41:11.102Z,52.88
2023-04-26T11:43:42.017Z,55.48
2023-04-26T11:46:10.781Z,54.00
2023-04-26T11:48:41.218Z,54.24
2023-04-26T11:51:12.093Z,54.52
2023-04-26T11:53:42.480Z,53.53
2023-04-26T11:56:17.899Z,52.67
2023-04-26T11:58:50.871Z,52.91
2023-04-26T12:01:23.931Z,50.66
2023-04-26T12:03:54.228Z,48.93
2023-04-26T12:06:30.485Z,49.03
2023-04-26T12:08:59.274Z,48.76
2023-04-26T12:11:27.994Z,50.27
2023-04-26T12:14:00.399Z,48.63
2023-04-26T12:16:29.123Z,51.08
2023-04-26T12:18:58.243Z,49.69
2023-04-26T12:21:30.325Z,50.18
2023-04-26T12:24:00.622Z,49.91
2023-04-26T12:26:45.955Z,48.18
2023-04-26T12:29:16.168Z,49.04
2023-04-26T12:31:44.350Z,47.12
2023-04-26T12:34:13.018Z,46.51
2023-04-26T12:36:44.692Z,46.12
2023-04-26T12:39:13.880Z,46.46
2023-04-26T12:41:44.564Z,47.52
2023-04-26T12:44:15.986Z,44.04
2023-04-26T12:46:44.891Z,45.23
2023-04-26T12:49:13.360Z,42.84
2023-04-26T12:51:41.914Z,43.87
2023-04-26T12:54:10.549Z,45.56
2023-04-26T12:56:43.937Z,45.26
2023-04-26T12:59:12.309Z,45.33
2023-04-26T13:01:43.464Z,43.11
2023-04-26T13:04:11.931Z,44.72
2023-04-26T13:06:40.565Z,46.10
2023-04-26T13:09:09.258Z,44.82
2023-04-26T13:11:37.674Z,44.23
2023-04-26T13:14:07.071Z,42.70
2023-04-26T13:16:36.755Z,41.59
2023-04-26T13:19:06.904Z,42.98
2023-04-26T13:21:35.217Z,42.67
2023-04-26T13:24:03.346Z,43.41
2023-04-26T13:26:33.242Z,43.28
2023-04-26T13:29:04.400Z,45.10
2023-04-26T13:31:32.761Z,45.38
2023-04-26T13:34:01.046Z,43.83
2023-04-26T13:36:32.329Z,42.17
2023-04-26T13:39:00.922Z,42.84
2023-04-26T13:41:33.631Z,43.22
2023-04-26T13:44:02.143Z,43.19
2023-04-26T13:46:30.564Z,44.14
2023-04-26T13:48:59.180Z,44.02
2023-04-26T13:51:30.126Z,43.04
2023-04-26T13:54:00.241Z,45.48
2023-04-26T13:56:28.801Z,42.36
2023-04-26T13:58:58.071Z,42.64
2023-04-26T14:01:26.435Z,44.68
2023-04-26T14:03:56.063Z,42.59
2023-04-26T14:06:24.776Z,41.80
2023-04-26T14:08:53.211Z,41.09
2023-04-26T14:11:23.193Z,40.25
2023-04-26T14:13:53.267Z,40.27
2023-04-26T14:16:22.769Z,39.87
2023-04-26T14:18:51.597Z,40.09
2023-04-26T14:21:20.008Z,40.72
2023-04-26T14:23:48.496Z,41.48
2023-04-26T14:26:18.436Z,41.91
2023-04-26T14:28:48.461Z,42.64
2023-04-26T14:31:19.861Z,41.91
2023-04-26T14:33:48.485Z,40.33
2023-04-26T14:36:16.781Z,39.90
2023-04-26T14:38:45.174Z,39.64
2023-04-26T14:41:16.042Z,39.77
2023-04-26T14:43:45.987Z,38.16
2023-04-26T14:46:16.706Z,36.71
2023-04-26T14:48:45.141Z,36.64
2023-04-26T14:51:13.428Z,37.09
2023-04-26T14:53:41.778Z,37.06
2023-04-26T14:56:09.951Z,37.47
2023-04-26T14:58:38.122Z,38.09
2023-04-26T15:01:06.624Z,40.38
2023-04-26T15:03:36.691Z,37.43
2023-04-26T15:06:05.347Z,38.14
2023-04-26T15:08:34.568Z,38.08
2023-04-26T15:11:03.017Z,39.87
2023-04-26T15:13:31.395Z,38.47
2023-04-26T15:15:59.507Z,37.84
2023-04-26T15:18:28.869Z,37.58
2023-04-26T15:20:58.542Z,36.79
2023-04-26T15:23:29.161Z,37.99
2023-04-26T15:26:02.530Z,36.69
2023-04-26T15:28:30.974Z,39.11
2023-04-26T15:31:03.651Z,38.70
2023-04-26T15:33:31.786Z,38.43
2023-04-26T15:36:01.687Z,38.75
2023-04-26T15:38:31.023Z,37.56
2023-04-26T15:40:59.412Z,38.19
2023-04-26T15:43:27.986Z,37.79
2023-04-26T15:45:56.734Z,39.36
2023-04-26T15:48:26.140Z,39.06
2023-04-26T15:50:56.916Z,39.65
2023-04-26T15:53:27.199Z,39.07
2023-04-26T15:55:55.308Z,38.25
2023-04-26T15:58:24.706Z,37.84
2023-04-26T16:00:53.458Z,37.30
2023-04-26T16:03:21.875Z,37.06
2023-04-26T16:05:50.679Z,36.49
2023-04-26T16:08:33.236Z,37.40
2023-04-26T16:11:09.322Z,37.31
2023-04-26T16:13:38.985Z,37.89
2023-04-26T16:16:09.186Z,37.12
2023-04-26T16:18:39.694Z,35.61
2023-04-26T16:21:10.411Z,37.12
2023-04-26T16:23:38.976Z,36.22
2023-04-26T16:26:09.549Z,36.42
2023-04-26T16:28:37.723Z,36.43
2023-04-26T16:31:06.539Z,37.21
2023-04-26T16:33:35.048Z,36.11
2023-04-26T16:36:05.976Z,35.02
2023-04-26T16:38:34.327Z,34.00
2023-04-26T16:41:02.678Z,33.25
2023-04-26T16:43:33.473Z,31.71
2023-04-26T16:46:02.895Z,31.50
2023-04-26T16:48:33.880Z,33.77
2023-04-26T16:51:04.867Z,34.59
2023-04-26T16:53:34.872Z,34.75
2023-04-26T16:56:04.938Z,34.58
2023-04-26T16:58:34.827Z,35.17
2023-04-26T17:01:02.841Z,36.03
2023-04-26T17:03:31.729Z,36.31
2023-04-26T17:06:00.532Z,37.15
2023-04-26T17:08:28.928Z,37.19
2023-04-26T17:10:59.238Z,38.50
2023-04-26T17:13:29.548Z,38.97
2023-04-26T17:15:59.337Z,38.63
2023-04-26T17:18:27.790Z,38.83
2023-04-26T17:20:56.903Z,39.34
2023-04-26T17:23:25.954Z,39.44
2023-04-26T17:25:56.154Z,38.62
2023-04-26T17:28:24.538Z,37.85
2023-04-26T17:30:52.652Z,38.51
2023-04-26T17:33:22.216Z,38.36
2023-04-26T17:35:50.346Z,39.80
2023-04-26T17:38:18.761Z,40.79
2023-04-26T17:40:47.208Z,42.18
2023-04-26T17:43:15.263Z,43.60
2023-04-26T17:45:43.392Z,44.05
2023-04-26T17:48:13.520Z,44.60
2023-04-26T17:50:43.429Z,45.58
2023-04-26T17:53:11.796Z,46.77
2023-04-26T17:55:40.717Z,46.39
2023-04-26T17:58:09.217Z,45.99
2023-04-26T18:00:37.415Z,46.07
2023-04-26T18:03:06.788Z,46.37
2023-04-26T18:05:35.196Z,46.65
2023-04-26T18:08:05.715Z,47.53
2023-04-26T18:10:34.229Z,46.85
2023-04-26T18:13:02.877Z,46.59
2023-04-26T18:15:31.376Z,46.55
2023-04-26T18:18:00.046Z,47.22
2023-04-26T18:20:28.305Z,48.49
2023-04-26T18:22:56.799Z,49.10
2023-04-26T18:25:26.512Z,49.89
2023-04-26T18:27:55.009Z,50.68
2023-04-26T18:30:23.120Z,50.18
2023-04-26T18:32:53.230Z,50.90
2023-04-26T18:35:22.431Z,51.70
2023-04-26T18:37:50.535Z,52.85
2023-04-26T18:40:18.968Z,52.54
2023-04-26T18:42:49.596Z,52.74
2023-04-26T18:45:19.044Z,51.93
2023-04-26T18:47:47.677Z,52.99
2023-04-26T18:50:16.144Z,53.48
2023-04-26T18:52:44.209Z,53.21
2023-04-26T18:55:12.446Z,53.46
2023-04-26T18:57:40.716Z,57.71
2023-04-26T19:00:12.355Z,58.60
2023-04-26T19:02:41.367Z,62.81
2023-04-26T19:05:11.743Z,66.87
2023-04-26T19:07:41.916Z,69.38
2023-04-26T19:10:11.021Z,70.41
2023-04-26T19:12:39.225Z,71.78
2023-04-26T19:15:08.574Z,74.02
2023-04-26T19:17:39.045Z,73.25
2023-04-26T19:20:13.068Z,74.62
2023-04-26T19:22:42.409Z,72.63
2023-04-26T19:25:13.016Z,76.00
2023-04-26T19:27:41.330Z,76.62
2023-04-26T19:30:10.749Z,77.76
2023-04-26T19:32:40.399Z,79.79
2023-04-26T19:35:10.277Z,81.84
2023-04-26T19:37:38.360Z,82.67
2023-04-26T19:40:09.344Z,86.08
2023-04-26T19:42:37.798Z,88.75
2023-04-26T19:45:07.191Z,90.03
2023-04-26T19:47:35.446Z,91.59
2023-04-26T19:50:06.145Z,91.93
2023-04-26T19:52:34.295Z,87.58
2023-04-26T19:55:02.765Z,80.92
2023-04-26T19:57:31.318Z,81.95
2023-04-26T20:00:01.056Z,83.26
2023-04-26T20:02:29.795Z,90.60
2023-04-26T20:04:58.196Z,95.14
2023-04-26T20:07:28.039Z,96.52
2023-04-26T20:09:56.257Z,97.10
2023-04-26T20:12:24.860Z,97.07
2023-04-26T20:14:53.183Z,95.58
2023-04-26T20:17:21.787Z,97.11
2023-04-26T20:19:49.898Z,95.25
2023-04-26T20:22:18.292Z,96.19
2023-04-26T20:24:48.266Z,99.04
2023-04-26T20:27:16.627Z,100.00
2023-04-26T20:29:44.713Z,98.19
2023-04-26T20:32:13.089Z,98.30
2023-04-26T20:34:41.683Z,95.17
2023-04-26T20:37:09.797Z,91.86
2023-04-26T20:39:37.946Z,88.96
2023-04-26T20:42:07.658Z,84.70
2023-04-26T20:44:36.001Z,79.63
2023-04-26T20:47:04.290Z,76.23
2023-04-26T20:49:33.986Z,75.36
2023-04-26T20:52:02.460Z,77.52
2023-04-26T20:54:31.459Z,79.64
2023-04-26T20:56:59.616Z,81.02
2023-04-26T20:59:29.488Z,81.87
2023-04-26T21:01:59.008Z,84.52
2023-04-26T21:04:27.509Z,83.03
2023-04-26T21:06:56.031Z,80.87
2023-04-26T21:09:24.023Z,85.80
2023-04-26T21:11:52.136Z,87.49
2023-04-26T21:14:20.660Z,88.24
2023-04-26T21:16:51.604Z,88.42
2023-04-26T21:19:20.410Z,88.48
2023-04-26T21:21:51.194Z,86.29
2023-04-26T21:24:19.586Z,84.53
2023-04-26T21:26:47.659Z,84.24
2023-04-26T21:29:16.668Z,84.95
2023-04-26T21:31:47.370Z,85.93
2023-04-26T21:34:17.504Z,85.22
2023-04-26T21:36:45.560Z,85.41
2023-04-26T21:39:14.406Z,86.26
2023-04-26T21:41:42.655Z,88.09
2023-04-26T21:44:11.303Z,88.29
2023-04-26T21:46:39.541Z,88.48
2023-04-26T21:49:08.196Z,87.95
2023-04-26T21:51:37.810Z,87.80
2023-04-26T21:54:09.574Z,89.01
2023-04-26T21:56:38.069Z,92.63
2023-04-26T21:59:06.357Z,93.96
2023-04-26T22:01:34.483Z,94.58
2023-04-26T22:04:02.958Z,92.26
2023-04-26T22:06:31.295Z,92.18
2023-04-26T22:09:01.253Z,93.58
2023-04-26T22:11:29.724Z,95.46
2023-04-26T22:13:57.942Z,97.78
2023-04-26T22:16:26.274Z,98.85
2023-04-26T22:18:54.300Z,98.59
2023-04-26T22:21:23.651Z,99.93
2023-04-26T22:23:52.134Z,100.00
2023-04-26T22:26:22.112Z,100.00
2023-04-26T22:28:50.489Z,100.00
2023-04-26T22:31:18.707Z,100.00
2023-04-26T22:33:47.030Z,100.00
2023-04-26T22:36:15.316Z,100.00
2023-04-26T22:38:43.383Z,100.00
2023-04-26T22:41:11.740Z,100.00
2023-04-26T22:43:43.938Z,100.00
2023-04-26T22:46:12.406Z,100.00
2023-04-26T22:48:40.603Z,100.00
2023-04-26T22:51:08.695Z,100.00
2023-04-26T22:53:36.950Z,100.00
2023-04-26T22:56:05.547Z,100.00
2023-04-26T22:58:33.726Z,100.00
2023-04-26T23:01:03.448Z,100.00
2023-04-26T23:03:31.762Z,100.00
2023-04-26T23:06:00.175Z,100.00
2023-04-26T23:08:28.471Z,100.00
2023-04-26T23:10:56.700Z,100.00
2023-04-26T23:13:27.087Z,100.00
2023-04-26T23:15:55.370Z,100.00
2023-04-26T23:18:26.836Z,100.00
2023-04-26T23:20:55.108Z,100.00
2023-04-26T23:23:23.516Z,100.00
2023-04-26T23:25:51.597Z,100.00
2023-04-26T23:28:21.118Z,100.00
2023-04-26T23:30:49.961Z,100.00
2023-04-26T23:33:17.957Z,100.00
2023-04-26T23:35:47.745Z,100.00
2023-04-26T23:38:15.857Z,100.00
2023-04-26T23:40:43.883Z,100.00
2023-04-26T23:43:14.080Z,100.00
2023-04-26T23:45:47.393Z,100.00
2023-04-26T23:48:15.737Z,100.00
2023-04-26T23:50:46.887Z,100.00
2023-04-26T23:53:16.484Z,100.00
2023-04-26T23:55:44.856Z,100.00
2023-04-26T23:58:13.184Z,100.00
